Time;durP1;ratioP1;P1;durP2;ratioP2;P2;SDS_P1;SDS_P2;PMS_P1;PMS_P2;Temp;Humidity;BMP_temperature;BMP_pressure;BME280_temperature;BME280_humidity;BME280_pressure;Samples;Min_cycle;Max_cycle;Signal;HPM_P1;HPM_P2
2021/12/14 00:00:18;;;;;;;;;;;;;;;7.37;100.00;102156.81;5030555;28;20052;-84
2021/12/14 00:02:46;;;;;;;8.75;5.55;;;;;;;7.32;100.00;102170.50;5029226;28;20387;-84
2021/12/14 00:05:14;;;;;;;7.53;5.70;;;;;;;7.35;100.00;102164.94;5030360;28;20049;-84
2021/12/14 00:07:41;;;;;;;7.22;5.00;;;;;;;7.37;100.00;102165.69;5030141;28;20068;-84
2021/12/14 00:13:03;;;;;;;7.97;5.22;;;;;;;7.37;100.00;102156.81;5030325;28;20049;-84
2021/12/14 00:15:29;;;;;;;8.15;5.28;;;;;;;7.38;100.00;102155.84;5030065;28;20041;-83
2021/12/14 00:17:58;;;;;;;8.70;5.63;;;;;;;7.37;100.00;102160.34;5027237;28;20633;-84
2021/12/14 00:20:41;;;;;;;8.20;6.00;;;;;;;7.38;100.00;102146.03;5030277;28;20041;-83
2021/12/14 00:25:49;;;;;;;9.45;6.32;;;;;;;7.37;100.00;102146.16;5051073;28;20045;-83
2021/12/14 00:28:21;;;;;;;9.38;6.47;;;;;;;7.37;100.00;102130.97;4971615;28;20385;-83
2021/12/14 00:30:48;;;;;;;9.90;6.72;;;;;;;7.36;100.00;102136.41;4932764;28;20090;-83
2021/12/14 00:33:18;;;;;;;10.10;7.00;;;;;;;7.34;100.00;102133.88;4931008;28;20059;-83
2021/12/14 00:35:45;;;;;;;9.68;7.10;;;;;;;7.35;100.00;102145.41;4930530;28;20036;-84
2021/12/14 00:38:14;;;;;;;12.18;6.47;;;;;;;7.34;100.00;102141.88;4915048;29;20043;-83
2021/12/14 00:40:44;;;;;;;9.27;6.60;;;;;;;7.36;100.00;102139.94;4915153;29;20047;-84
2021/12/14 00:43:09;;;;;;;9.90;6.38;;;;;;;7.36;100.00;102139.94;4914885;29;20464;-83
2021/12/14 00:45:39;;;;;;;13.82;8.57;;;;;;;7.37;100.00;102146.16;4930719;29;20052;-83
2021/12/14 00:48:06;;;;;;;;;;;;;;;7.35;100.00;102148.91;4930147;28;20048;-84
2021/12/14 00:50:33;;;;;;;10.52;7.57;;;;;;;7.25;100.00;102137.19;4930044;28;19950;-84
2021/12/14 00:52:59;;;;;;;11.10;7.65;;;;;;;7.28;100.00;102134.31;4929939;28;20550;-84
2021/12/14 00:55:36;;;;;;;12.02;8.40;;;;;;;7.32;100.00;102146.47;4963024;28;20639;-83
2021/12/14 00:58:02;;;;;;;10.30;8.02;;;;;;;7.36;100.00;102152.44;4968073;28;20523;-83
2021/12/14 01:00:33;;;;;;;11.07;8.60;;;;;;;7.35;100.00;102150.72;4977445;28;20077;-83
2021/12/14 01:03:00;;;;;;;9.98;7.18;;;;;;;7.33;100.00;102156.16;4969148;28;20388;-84
2021/12/14 01:05:34;;;;;;;11.40;8.30;;;;;;;7.33;100.00;102150.84;4975685;28;20240;-83
2021/12/14 01:08:04;;;;;;;10.65;7.18;;;;;;;7.33;100.00;102158.84;5013201;28;20056;-83
2021/12/14 01:10:37;;;;;;;11.95;7.80;;;;;;;7.35;100.00;102167.59;5043806;28;20037;-84
2021/12/14 01:13:08;;;;;;;10.13;7.25;;;;;;;7.33;100.00;102166.84;5046241;28;20041;-84
2021/12/14 01:16:14;;;;;;;10.00;7.35;;;;;;;7.31;100.00;102152.78;5000676;28;20039;-83
2021/12/14 01:18:50;;;;;;;11.07;8.07;;;;;;;7.27;100.00;102159.28;5033976;28;20049;-84
2021/12/14 01:24:23;;;;;;;11.13;7.57;;;;;;;7.27;100.00;102167.28;5048601;28;20040;-84
2021/12/14 01:26:50;;;;;;;15.20;8.98;;;;;;;7.25;100.00;102155.91;5018279;28;20056;-84
2021/12/14 01:29:19;;;;;;;11.23;8.95;;;;;;;7.25;100.00;102161.22;5043179;28;20123;-83
2021/12/14 01:31:48;;;;;;;11.38;8.35;;;;;;;7.24;100.00;102157.69;5031150;28;20453;-83
2021/12/14 01:34:19;;;;;;;15.13;9.13;;;;;;;7.23;100.00;102171.16;5017405;28;20045;-84
2021/12/14 01:36:50;;;;;;;12.55;10.05;;;;;;;7.24;100.00;102163.03;5044998;28;20099;-84
2021/12/14 01:42:09;;;;;;;12.27;8.63;;;;;;;7.21;100.00;102157.91;5048653;28;20367;-83
2021/12/14 01:44:58;;;;;;;13.57;9.57;;;;;;;7.21;100.00;102162.41;5046217;28;20045;-84
2021/12/14 01:47:38;;;;;;;13.15;8.60;;;;;;;7.20;100.00;102166.03;4996556;28;20366;-84
2021/12/14 01:50:12;;;;;;;13.77;9.50;;;;;;;7.22;100.00;102158.75;4993594;28;20041;-84
2021/12/14 01:52:40;;;;;;;12.82;8.85;;;;;;;7.20;100.00;102150.03;5008180;28;20045;-83
2021/12/14 01:55:13;;;;;;;12.43;8.77;;;;;;;7.20;100.00;102134.00;5029465;28;20689;-84
2021/12/14 01:57:41;;;;;;;11.63;9.25;;;;;;;7.19;100.00;102125.13;5026207;28;20045;-84
2021/12/14 02:00:14;;;;;;;14.52;9.65;;;;;;;7.21;100.00;102128.53;5022190;28;20408;-84
2021/12/14 02:02:46;;;;;;;12.63;9.15;;;;;;;7.21;100.00;102117.00;5048827;28;20064;-83
2021/12/14 02:05:26;;;;;;;14.73;9.38;;;;;;;7.22;100.00;102094.66;5045333;28;20152;-83
2021/12/14 02:07:58;;;;;;;13.93;11.05;;;;;;;7.22;100.00;102089.34;5028575;28;20068;-83
2021/12/14 02:10:31;;;;;;;14.13;10.05;;;;;;;7.20;100.00;102088.63;5045459;28;20037;-83
2021/12/14 02:12:57;;;;;;;13.75;9.77;;;;;;;7.18;100.00;102067.34;5011267;28;20041;-83
2021/12/14 02:15:29;;;;;;;16.23;11.77;;;;;;;7.19;100.00;102073.53;5031478;28;20067;-83
2021/12/14 02:17:58;;;;;;;15.63;10.65;;;;;;;7.17;100.00;102075.50;5009436;28;20037;-83
2021/12/14 02:20:28;;;;;;;14.77;10.70;;;;;;;7.18;100.00;102088.72;5027524;28;20048;-83
2021/12/14 02:22:55;;;;;;;15.45;11.57;;;;;;;7.17;100.00;102087.00;5047472;28;20040;-83
2021/12/14 02:25:31;;;;;;;15.30;10.48;;;;;;;7.17;100.00;102094.19;5045744;28;20045;-83
2021/12/14 02:28:06;;;;;;;16.38;12.05;;;;;;;7.17;100.00;102097.69;5029757;28;20064;-83
2021/12/14 02:30:34;;;;;;;14.98;10.65;;;;;;;7.16;100.00;102090.66;5045721;28;20124;-84
2021/12/14 02:33:12;;;;;;;18.00;12.75;;;;;;;7.16;100.00;102082.66;5051273;28;20048;-83
2021/12/14 02:35:42;;;;;;;15.43;11.35;;;;;;;7.13;100.00;102087.34;5023577;28;20056;-83
2021/12/14 02:38:12;;;;;;;15.30;11.57;;;;;;;7.15;100.00;102077.41;5048136;28;20037;-83
2021/12/14 02:40:54;;;;;;;18.13;11.80;;;;;;;7.14;100.00;102075.72;5047884;28;20114;-83
2021/12/14 02:43:32;;;;;;;15.98;12.68;;;;;;;7.14;100.00;102099.72;5044097;28;20048;-83
2021/12/14 02:46:09;;;;;;;18.27;13.45;;;;;;;7.12;100.00;102082.97;5029190;28;20128;-84
2021/12/14 02:48:36;;;;;;;15.73;12.23;;;;;;;7.10;100.00;102095.56;5044713;28;20049;-83
2021/12/14 02:51:26;;;;;;;16.45;11.68;;;;;;;7.10;100.00;102099.06;5026008;28;20037;-84
2021/12/14 02:53:54;;;;;;;18.38;11.80;;;;;;;7.11;100.00;102102.63;5022994;28;20040;-84
2021/12/14 02:56:27;;;;;;;16.58;13.55;;;;;;;7.11;100.00;102105.31;5047620;28;20049;-83
2021/12/14 02:58:59;;;;;;;18.38;11.80;;;;;;;7.09;100.00;102104.53;5046290;28;20056;-83
2021/12/14 03:01:24;;;;;;;19.25;12.25;;;;;;;7.09;100.00;102086.72;5045682;28;20071;-83
2021/12/14 03:03:50;;;;;;;19.80;14.02;;;;;;;7.12;100.00;102090.97;5046887;28;20053;-83
2021/12/14 03:06:21;;;;;;;19.83;14.05;;;;;;;7.11;100.00;102086.63;5030035;28;20555;-84
2021/12/14 03:09:06;;;;;;;20.90;13.15;;;;;;;7.10;100.00;102085.72;5033882;28;20115;-84
2021/12/14 03:11:32;;;;;;;20.63;14.15;;;;;;;7.08;100.00;102090.34;5006020;28;20178;-83
2021/12/14 03:13:58;;;;;;;17.30;12.23;;;;;;;7.06;100.00;102100.28;5032652;28;20056;-84
2021/12/14 03:16:27;;;;;;;19.65;13.80;;;;;;;7.09;100.00;102101.88;5050597;28;20037;-84
2021/12/14 03:19:00;;;;;;;19.63;14.60;;;;;;;7.08;100.00;102098.34;5032585;28;20477;-83
2021/12/14 03:21:30;;;;;;;19.88;14.82;;;;;;;7.09;100.00;102091.19;5033307;28;20095;-84
2021/12/14 03:24:09;;;;;;;20.40;15.63;;;;;;;7.10;100.00;102095.56;5014127;28;20041;-84
2021/12/14 03:26:39;;;;;;;22.05;16.98;;;;;;;7.09;100.00;102088.53;5049681;28;20071;-84
2021/12/14 03:29:17;;;;;;;22.52;15.05;;;;;;;7.08;100.00;102086.81;5032225;28;20492;-85
2021/12/14 03:31:48;;;;;;;21.65;16.60;;;;;;;7.08;100.00;102081.47;5023892;28;20549;-84
2021/12/14 03:34:20;;;;;;;20.63;16.40;;;;;;;7.08;100.00;102078.78;5013585;28;22188;-84
2021/12/14 03:36:53;;;;;;;18.88;15.38;;;;;;;7.07;100.00;102079.78;5049783;28;20489;-84
2021/12/14 03:39:36;;;;;;;20.52;16.50;;;;;;;7.06;100.00;102081.59;5050742;28;20096;-84
2021/12/14 03:42:36;;;;;;;22.85;14.98;;;;;;;7.05;100.00;102084.34;5031512;28;20033;-84
2021/12/14 03:45:10;;;;;;;25.20;17.30;;;;;;;7.03;100.00;102079.16;5028528;28;20056;-84
2021/12/14 03:47:41;;;;;;;22.95;16.80;;;;;;;7.04;100.00;102069.31;5026521;28;20068;-83
2021/12/14 03:50:19;;;;;;;23.73;17.30;;;;;;;7.05;100.00;102065.66;5049349;28;20037;-83
2021/12/14 03:52:45;;;;;;;23.23;18.35;;;;;;;7.05;100.00;102065.66;5046473;28;20041;-83
2021/12/14 03:55:19;;;;;;;24.02;16.98;;;;;;;7.04;100.00;102075.50;5049782;28;20068;-83
2021/12/14 03:57:50;;;;;;;24.45;18.60;;;;;;;7.05;100.00;102092.38;5031578;28;20037;-83
2021/12/14 04:00:39;;;;;;;23.23;15.50;;;;;;;7.03;100.00;102078.28;5030866;28;20067;-83
2021/12/14 04:03:11;;;;;;;24.77;16.00;;;;;;;7.02;100.00;102088.13;5031100;28;20044;-84
2021/12/14 04:05:40;;;;;;;23.98;16.77;;;;;;;7.03;100.00;102096.97;5023421;28;20502;-84
2021/12/14 04:08:07;;;;;;;23.85;16.80;;;;;;;7.03;100.00;102105.00;5009215;28;20033;-84
2021/12/14 04:10:41;;;;;;;25.98;18.77;;;;;;;7.04;100.00;102117.34;5000731;28;20096;-84
2021/12/14 04:13:08;;;;;;;24.63;17.83;;;;;;;7.03;100.00;102105.84;5005656;28;1094637;-84
2021/12/14 04:15:41;;;;;;;26.67;18.70;;;;;;;7.03;100.00;102094.31;5031821;28;20043;-83
2021/12/14 04:18:08;;;;;;;27.88;17.98;;;;;;;7.01;100.00;102102.41;5000930;28;20040;-84
2021/12/14 04:20:40;;;;;;;25.60;19.30;;;;;;;7.03;100.00;102099.66;5049175;28;20044;-83
2021/12/14 04:23:13;;;;;;;25.38;20.52;;;;;;;7.03;100.00;102099.66;5046694;28;20107;-83
2021/12/14 04:25:39;;;;;;;27.92;17.20;;;;;;;7.02;100.00;102098.81;5046051;28;20451;-83
2021/12/14 04:28:08;;;;;;;27.52;18.83;;;;;;;7.04;100.00;102096.00;5031450;28;20045;-83
2021/12/14 04:30:34;;;;;;;24.83;19.05;;;;;;;7.04;100.00;102096.00;5031220;28;20037;-83
2021/12/14 04:33:05;;;;;;;29.67;21.77;;;;;;;7.03;100.00;102088.97;5026765;28;20045;-83
2021/12/14 04:35:37;;;;;;;26.42;20.10;;;;;;;7.01;100.00;102086.41;5031261;28;20470;-84
2021/12/14 04:38:09;;;;;;;29.17;20.38;;;;;;;7.01;100.00;102092.59;5039602;28;20046;-84
2021/12/14 04:51:55;;;;;;;28.90;18.98;;;;;;;7.00;100.00;102090.03;5031405;28;20043;-84
2021/12/14 04:51:58;;;;;;;27.70;19.77;;;;;;;6.97;100.00;102083.09;5021696;28;20092;-83
2021/12/14 04:54:38;;;;;;;29.23;20.85;;;;;;;6.97;100.00;102084.94;5045626;28;20103;-84
2021/12/14 04:57:15;;;;;;;26.95;18.73;;;;;;;6.97;100.00;102082.25;5032072;28;20045;-84
2021/12/14 04:59:40;;;;;;;31.20;20.88;;;;;;;6.97;100.00;102077.75;5012906;28;20042;-83
2021/12/14 05:02:14;;;;;;;32.30;22.58;;;;;;;6.98;100.00;102078.59;5037602;28;20041;-85
2021/12/14 05:04:41;;;;;;;28.95;20.02;;;;;;;6.98;100.00;102075.94;5027787;28;20041;-83
2021/12/14 05:07:32;;;;;;;31.90;21.17;;;;;;;6.98;100.00;102067.94;5028719;28;20037;-83
2021/12/14 05:10:04;;;;;;;30.30;19.05;;;;;;;6.95;100.00;102060.16;5027859;28;20140;-83
2021/12/14 05:12:32;;;;;;;32.10;23.38;;;;;;;6.94;100.00;102067.31;5008400;28;20050;-83
2021/12/14 05:15:00;;;;;;;29.33;18.25;;;;;;;6.94;100.00;102069.13;5024723;28;20554;-84
2021/12/14 05:17:32;;;;;;;36.13;23.20;;;;;;;6.93;100.00;102065.63;5008645;28;20042;-83
2021/12/14 05:19:59;;;;;;;32.50;23.55;;;;;;;6.93;100.00;102057.59;5028841;28;20423;-84
2021/12/14 05:22:33;;;;;;;36.60;23.92;;;;;;;6.94;100.00;102059.31;5011778;28;20044;-83
2021/12/14 05:25:09;;;;;;;31.63;21.75;;;;;;;6.91;100.00;102043.50;4993350;28;20041;-84
2021/12/14 05:27:42;;;;;;;34.03;22.08;;;;;;;6.89;100.00;102049.91;5020140;28;20702;-83
2021/12/14 05:30:16;;;;;;;36.28;24.65;;;;;;;6.91;100.00;102059.53;5038192;28;20056;-83
2021/12/14 05:32:43;;;;;;;32.30;20.55;;;;;;;6.89;100.00;102066.78;5045076;28;20055;-86
2021/12/14 05:35:12;;;;;;;32.70;21.75;;;;;;;6.90;100.00;102057.78;5046434;28;20048;-84
2021/12/14 05:37:45;;;;;;;33.72;21.25;;;;;;;6.88;100.00;102057.06;5029270;28;20374;-84
2021/12/14 05:40:22;;;;;;;30.90;20.40;;;;;;;6.86;100.00;102056.31;5037569;28;20120;-84
2021/12/14 05:43:07;;;;;;;30.67;18.77;;;;;;;6.86;100.00;102067.00;5010915;28;20505;-84
2021/12/14 05:45:36;;;;;;;30.08;20.58;;;;;;;6.86;100.00;102056.31;5013421;28;20088;-84
2021/12/14 05:48:05;;;;;;;29.50;20.13;;;;;;;6.85;100.00;102056.41;5042549;28;20045;-84
2021/12/14 05:50:39;;;;;;;32.03;23.38;;;;;;;6.87;100.00;102067.84;5027044;28;20128;-83
2021/12/14 05:53:05;;;;;;;31.52;21.58;;;;;;;6.86;100.00;102068.81;5010860;28;20037;-83
2021/12/14 05:55:35;;;;;;;29.90;20.65;;;;;;;6.86;100.00;102069.66;5006956;28;20056;-84
2021/12/14 05:58:04;;;;;;;30.38;20.85;;;;;;;6.87;100.00;102070.50;5037853;28;20121;-83
2021/12/14 06:00:37;;;;;;;28.55;17.30;;;;;;;6.85;100.00;102065.31;5004460;28;20049;-84
2021/12/14 06:03:03;;;;;;;28.45;20.83;;;;;;;6.86;100.00;102076.81;5035414;28;20041;-83
2021/12/14 06:05:30;;;;;;;31.23;21.33;;;;;;;6.85;100.00;102080.44;5024567;28;20548;-84
2021/12/14 06:07:56;;;;;;;30.20;21.35;;;;;;;6.84;100.00;102079.59;5009094;28;20092;-84
2021/12/14 06:10:24;;;;;;;31.98;20.35;;;;;;;6.84;100.00;102084.06;5018148;28;20041;-83
2021/12/14 06:12:50;;;;;;;30.10;19.27;;;;;;;6.84;100.00;102084.94;5025945;28;20038;-83
2021/12/14 06:15:22;;;;;;;32.22;20.10;;;;;;;6.83;100.00;102093.06;5026157;28;20103;-83
2021/12/14 06:17:48;;;;;;;30.23;19.27;;;;;;;6.84;100.00;102089.41;5027301;28;20088;-84
2021/12/14 06:20:21;;;;;;;33.58;20.77;;;;;;;6.85;100.00;102101.78;5020535;28;20044;-83
2021/12/14 06:22:48;;;;;;;33.95;23.88;;;;;;;6.85;100.00;102100.00;5025509;28;20500;-83
2021/12/14 06:25:21;;;;;;;32.47;20.00;;;;;;;6.85;100.00;102102.66;5016386;28;20072;-84
2021/12/14 06:27:48;;;;;;;31.40;19.75;;;;;;;6.84;100.00;102100.94;5026342;28;20052;-84
2021/12/14 06:30:18;;;;;;;34.35;24.50;;;;;;;6.84;100.00;102103.59;5027451;28;20559;-84
2021/12/14 06:32:49;;;;;;;36.58;23.98;;;;;;;6.84;100.00;102103.59;5022048;28;20129;-84
2021/12/14 06:35:20;;;;;;;36.17;25.98;;;;;;;6.86;100.00;102112.38;5022064;28;20037;-84
2021/12/14 06:38:24;;;;;;;32.47;23.98;;;;;;;6.86;100.00;102115.03;5028187;28;20486;-83
2021/12/14 06:41:01;;;;;;;33.75;22.73;;;;;;;6.82;100.00;102116.22;5018428;28;20045;-83
2021/12/14 06:43:49;;;;;;;31.63;23.23;;;;;;;6.81;100.00;102117.16;5025651;28;21217;-84
2021/12/14 06:46:28;;;;;;;35.65;20.65;;;;;;;6.82;100.00;102118.00;5025159;28;20140;-83
2021/12/14 06:49:03;;;;;;;34.58;23.40;;;;;;;6.81;100.00;102116.31;5027883;28;20229;-83
2021/12/14 06:51:33;;;;;;;34.63;23.08;;;;;;;6.78;100.00;102112.88;5028326;28;20132;-83
2021/12/14 06:54:04;;;;;;;32.25;20.85;;;;;;;6.79;100.00;102113.78;5023263;28;20072;-84
2021/12/14 06:56:32;;;;;;;33.33;22.20;;;;;;;6.79;100.00;102119.09;5020635;28;20394;-84
2021/12/14 06:59:05;;;;;;;35.75;23.40;;;;;;;6.78;100.00;102118.22;4988559;28;20509;-84
2021/12/14 07:01:38;;;;;;;34.70;23.63;;;;;;;6.78;100.00;102128.06;5021113;28;20128;-83
2021/12/14 07:04:09;;;;;;;36.47;22.40;;;;;;;6.78;100.00;102136.06;5021246;28;20371;-84
2021/12/14 07:06:40;;;;;;;32.85;23.02;;;;;;;6.78;100.00;102146.72;5022024;28;20857;-83
2021/12/14 07:09:13;;;;;;;34.63;20.08;;;;;;;6.77;100.00;102151.22;5022598;28;20056;-84
2021/12/14 07:11:47;;;;;;;33.78;22.20;;;;;;;6.77;100.00;102156.53;5021935;28;20317;-84
2021/12/14 07:14:28;;;;;;;33.33;20.02;;;;;;;6.78;100.00;102154.72;5019120;28;20041;-83
2021/12/14 07:17:01;;;;;;;35.40;23.83;;;;;;;6.77;100.00;102148.53;5018685;28;20048;-83
2021/12/14 07:19:45;;;;;;;31.60;18.92;;;;;;;6.75;100.00;102141.59;5024709;28;20099;-84
2021/12/14 07:22:38;;;;;;;32.85;20.65;;;;;;;6.75;100.00;102150.47;5021685;28;20061;-83
2021/12/14 07:25:14;;;;;;;35.03;24.27;;;;;;;6.77;100.00;102153.03;5018648;28;20029;-83
2021/12/14 07:27:47;;;;;;;31.50;18.90;;;;;;;6.75;100.00;102158.47;5022238;28;20056;-83
2021/12/14 07:30:19;;;;;;;33.15;19.83;;;;;;;6.76;100.00;102164.66;5023562;28;20049;-83
2021/12/14 07:33:10;;;;;;;36.67;24.52;;;;;;;6.76;100.00;102167.31;5021604;28;20440;-83
2021/12/14 07:35:41;;;;;;;33.40;21.48;;;;;;;6.75;100.00;102176.28;5019373;28;20041;-84
2021/12/14 07:38:15;;;;;;;36.08;22.90;;;;;;;6.75;100.00;102174.47;5024477;28;20132;-84
2021/12/14 07:40:44;;;;;;;35.55;21.88;;;;;;;6.75;100.00;102178.94;5024631;28;20485;-84
2021/12/14 07:43:27;;;;;;;35.75;22.02;;;;;;;6.76;100.00;102183.31;5018855;28;22102;-84
2021/12/14 07:45:54;;;;;;;34.92;22.70;;;;;;;6.74;100.00;102180.78;5022477;28;20045;-84
2021/12/14 07:48:23;;;;;;;35.65;24.33;;;;;;;6.76;100.00;102184.19;5024174;28;20489;-83
2021/12/14 07:50:54;;;;;;;39.13;24.65;;;;;;;6.76;100.00;102188.66;5043441;28;20052;-84
2021/12/14 07:53:58;;;;;;;37.67;24.45;;;;;;;6.75;100.00;102189.63;5025411;28;20045;-83
2021/12/14 07:56:29;;;;;;;34.25;22.80;;;;;;;6.75;100.00;102192.28;5003527;28;20041;-84
2021/12/14 07:58:58;;;;;;;35.97;25.75;;;;;;;6.74;100.00;102186.09;5026514;28;20072;-84
2021/12/14 08:01:24;;;;;;;40.37;24.13;;;;;;;6.76;100.00;102186.00;5026637;28;20049;-84
2021/12/14 08:04:03;;;;;;;37.85;26.08;;;;;;;6.76;100.00;102188.66;4987469;28;20493;-83
2021/12/14 08:06:46;;;;;;;35.38;22.58;;;;;;;6.75;100.00;102192.28;5024832;28;20414;-83
2021/12/14 08:09:17;;;;;;;39.80;25.75;;;;;;;6.75;100.00;102197.63;5023266;28;20033;-83
2021/12/14 08:11:49;;;;;;;34.53;21.85;;;;;;;6.74;100.00;102190.59;5024288;28;20045;-83
2021/12/14 08:14:23;;;;;;;38.08;23.25;;;;;;;6.75;100.00;102187.81;5019252;28;20144;-83
2021/12/14 08:17:04;;;;;;;40.03;25.83;;;;;;;6.76;100.00;102177.97;5025093;28;20042;-84
2021/12/14 08:19:37;;;;;;;41.03;24.00;;;;;;;6.75;100.00;102187.81;5008827;28;20175;-84
2021/12/14 08:22:27;;;;;;;38.22;23.15;;;;;;;6.75;100.00;102193.16;5023801;28;20042;-83
2021/12/14 08:24:54;;;;;;;39.38;25.27;;;;;;;6.77;100.00;102199.25;5025601;28;20091;-83
2021/12/14 08:27:22;;;;;;;39.42;23.75;;;;;;;6.75;100.00;102202.97;5007282;28;20057;-84
2021/12/14 08:29:50;;;;;;;37.45;21.98;;;;;;;6.74;100.00;102201.28;5026144;28;20111;-84
2021/12/14 08:32:20;;;;;;;41.40;26.75;;;;;;;6.77;100.00;102201.06;5024479;28;20128;-84
2021/12/14 08:34:47;;;;;;;43.47;27.13;;;;;;;6.77;100.00;102198.38;5026184;28;20033;-84
2021/12/14 08:37:17;;;;;;;44.78;26.70;;;;;;;6.78;100.00;102205.41;5026428;28;20041;-84
2021/12/14 08:39:45;;;;;;;43.55;25.10;;;;;;;6.78;100.00;102192.94;5020593;28;20061;-84
2021/12/14 08:42:23;;;;;;;42.60;27.30;;;;;;;6.77;100.00;102191.22;5025578;28;20045;-83
2021/12/14 08:44:56;;;;;;;43.83;25.95;;;;;;;6.76;100.00;102191.31;5039609;28;20824;-83
2021/12/14 08:47:32;;;;;;;42.55;24.15;;;;;;;6.76;100.00;102192.22;5025281;28;20042;-83
2021/12/14 08:50:00;;;;;;;40.15;23.42;;;;;;;6.78;100.00;102195.59;5022598;28;20450;-84
2021/12/14 08:52:27;;;;;;;39.83;23.40;;;;;;;6.80;100.00;102200.84;5009204;28;20087;-84
2021/12/14 08:54:53;;;;;;;42.45;26.30;;;;;;;6.81;100.00;102205.22;5025710;28;20154;-84
2021/12/14 08:57:23;;;;;;;41.15;25.98;;;;;;;6.84;100.00;102190.81;5010804;28;20057;-84
2021/12/14 08:59:53;;;;;;;41.17;23.63;;;;;;;6.87;100.00;102206.59;5020864;28;20045;-84
2021/12/14 09:02:20;;;;;;;41.95;23.40;;;;;;;6.87;100.00;102196.78;5023241;28;20064;-84
2021/12/14 09:05:26;;;;;;;41.33;24.55;;;;;;;6.91;100.00;102203.63;5028278;28;20041;-83
2021/12/14 09:07:51;;;;;;;43.15;24.77;;;;;;;6.90;100.00;102204.56;5004984;28;20043;-83
2021/12/14 09:10:21;;;;;;;45.90;25.00;;;;;;;6.90;100.00;102212.56;5029838;28;20099;-84
2021/12/14 09:12:49;;;;;;;39.55;23.25;;;;;;;6.93;100.00;102206.19;5026637;28;20045;-84
2021/12/14 09:15:25;;;;;;;45.65;23.58;;;;;;;6.93;100.00;102206.19;5025149;28;20045;-83
2021/12/14 09:17:54;;;;;;;43.85;25.90;;;;;;;6.97;100.00;102215.69;5024683;28;21545;-84
2021/12/14 09:20:30;;;;;;;48.92;26.63;;;;;;;6.95;100.00;102207.78;5000065;28;20121;-84
2021/12/14 09:23:01;;;;;;;41.85;24.20;;;;;;;6.98;100.00;102217.41;5024859;28;20056;-84
2021/12/14 09:25:29;;;;;;;46.63;28.60;;;;;;;7.02;100.00;102226.91;5025926;28;20475;-84
2021/12/14 09:27:56;;;;;;;46.63;28.98;;;;;;;7.07;100.00;102229.25;5026650;28;20045;-84
2021/12/14 09:30:25;;;;;;;46.60;28.33;;;;;;;7.06;100.00;102214.22;5024969;28;20041;-84
2021/12/14 09:32:51;;;;;;;48.08;30.30;;;;;;;7.06;100.00;102219.53;5021509;28;20464;-84
2021/12/14 09:35:21;;;;;;;46.22;25.67;;;;;;;7.07;100.00;102219.41;5023600;28;20046;-84
2021/12/14 09:37:50;;;;;;;48.28;25.65;;;;;;;7.09;100.00;102216.66;5026435;28;20517;-84
2021/12/14 09:40:22;;;;;;;48.75;27.73;;;;;;;7.09;100.00;102222.00;4988842;28;20463;-84
2021/12/14 09:42:47;;;;;;;44.80;25.13;;;;;;;7.09;100.00;102227.34;5023073;28;20042;-84
2021/12/14 09:45:18;;;;;;;50.47;26.75;;;;;;;7.10;100.00;102227.22;4991589;28;20049;-84
2021/12/14 09:47:44;;;;;;;46.13;26.65;;;;;;;7.11;100.00;102220.94;5005313;28;20046;-84
2021/12/14 09:50:17;;;;;;;47.95;28.08;;;;;;;7.15;100.00;102218.91;5017165;28;20477;-84
2021/12/14 09:52:43;;;;;;;50.50;29.27;;;;;;;7.18;100.00;102216.00;5025253;28;20470;-84
2021/12/14 09:55:14;;;;;;;48.08;28.38;;;;;;;7.19;100.00;102223.03;5024207;28;20332;-84
2021/12/14 09:57:45;;;;;;;43.78;25.63;;;;;;;7.20;100.00;102224.78;5008442;28;20037;-84
2021/12/14 10:00:36;;;;;;;49.40;29.08;;;;;;;7.24;100.00;102213.75;5014175;28;20144;-84
2021/12/14 10:03:03;;;;;;;49.08;28.25;;;;;;;7.24;100.00;102213.75;5024367;28;20135;-84
2021/12/14 10:05:47;;;;;;;45.58;29.02;;;;;;;7.23;100.00;102212.06;5023563;28;20045;-84
2021/12/14 10:08:19;;;;;;;50.85;30.38;;;;;;;7.27;100.00;102206.50;5024040;28;20430;-85
2021/12/14 10:11:04;;;;;;;49.50;30.30;;;;;;;7.25;100.00;102203.94;5026330;28;20700;-84
2021/12/14 10:13:31;;;;;;;55.22;31.95;;;;;;;7.26;100.00;102212.81;5018122;28;20136;-84
2021/12/14 10:15:58;;;;;;;65.13;35.75;;;;;;;7.27;100.00;102214.50;5023579;28;20041;-84
2021/12/14 10:18:40;;;;;;;59.15;34.17;;;;;;;7.29;100.00;102207.25;5014607;28;20045;-84
2021/12/14 10:21:20;;;;;;;52.95;31.33;;;;;;;7.29;100.00;102202.75;5018631;28;20120;-85
2021/12/14 10:23:48;;;;;;;48.13;27.67;;;;;;;7.29;100.00;102207.25;5019963;28;20116;-84
2021/12/14 10:26:15;;;;;;;54.97;28.98;;;;;;;7.29;100.00;102212.59;5023332;28;20065;-84
2021/12/14 10:28:45;;;;;;;52.55;26.15;;;;;;;7.33;100.00;102209.59;5027215;28;20034;-84
2021/12/14 10:31:20;;;;;;;51.33;28.60;;;;;;;7.38;100.00;102212.78;5024681;28;20045;-84
2021/12/14 10:33:46;;;;;;;56.03;33.45;;;;;;;7.40;100.00;102202.84;5021468;28;20047;-84
2021/12/14 10:36:31;;;;;;;52.97;28.10;;;;;;;7.40;100.00;102205.53;5020278;28;20038;-84
2021/12/14 10:39:19;;;;;;;48.22;25.67;;;;;;;7.42;100.00;102208.94;5022226;28;20869;-84
2021/12/14 10:44:37;;;;;;;53.78;31.13;;;;;;;7.49;100.00;102204.03;5032902;28;20087;-84
2021/12/14 10:47:05;;;;;;;53.38;29.67;;;;;;;7.52;100.00;102208.28;5020754;28;20104;-84
2021/12/14 10:49:30;;;;;;;48.78;24.83;;;;;;;7.54;100.00;102206.34;5023745;28;20045;-84
2021/12/14 10:52:00;;;;;;;52.80;31.33;;;;;;;7.54;100.00;102211.69;5023680;28;20051;-84
2021/12/14 10:54:27;;;;;;;49.90;29.02;;;;;;;7.55;100.00;102208.06;5022683;28;20048;-84
2021/12/14 10:56:58;;;;;;;49.92;31.83;;;;;;;7.57;100.00;102209.66;5024310;28;20041;-84
2021/12/14 10:59:31;;;;;;;53.20;27.88;;;;;;;7.56;100.00;102207.09;5023756;28;20065;-85
2021/12/14 11:01:56;;;;;;;51.42;29.88;;;;;;;7.56;100.00;102205.28;5022286;28;20508;-84
2021/12/14 11:04:34;;;;;;;53.67;31.17;;;;;;;7.57;100.00;102208.81;5019771;28;20045;-84
2021/12/14 11:07:01;;;;;;;60.65;32.75;;;;;;;7.56;100.00;102199.06;5025153;28;20038;-84
2021/12/14 11:09:45;;;;;;;62.30;31.55;;;;;;;7.56;100.00;102210.63;5004863;28;20103;-84
2021/12/14 11:12:28;;;;;;;61.58;32.92;;;;;;;7.58;100.00;102219.38;5032102;28;20041;-84
2021/12/14 11:14:59;;;;;;;58.83;32.08;;;;;;;7.60;100.00;102219.28;5018218;28;20042;-84
2021/12/14 11:20:28;;;;;;;62.85;32.10;;;;;;;7.58;100.00;102214.03;5018442;28;20548;-84
2021/12/14 11:23:09;;;;;;;59.13;32.28;;;;;;;7.57;100.00;102200.81;5014645;28;20104;-84
2021/12/14 11:25:39;;;;;;;62.97;32.42;;;;;;;7.59;100.00;102204.19;5024437;28;20482;-84
2021/12/14 11:28:09;;;;;;;61.95;33.92;;;;;;;7.61;100.00;102202.28;5022464;28;20071;-84
2021/12/14 11:30:39;;;;;;;75.80;42.25;;;;;;;7.65;100.00;102198.41;5020314;28;20046;-84
2021/12/14 11:33:26;;;;;;;68.40;34.20;;;;;;;7.62;100.00;102193.28;5006693;28;20106;-84
2021/12/14 11:36:15;;;;;;;61.72;29.45;;;;;;;7.62;100.00;102196.84;5020302;28;20061;-84
2021/12/14 11:38:45;;;;;;;60.78;35.35;;;;;;;7.58;100.00;102187.31;4991058;28;20045;-84
2021/12/14 11:41:29;;;;;;;59.65;31.25;;;;;;;7.59;100.00;102173.00;5018647;28;20049;-84
2021/12/14 11:44:14;;;;;;;65.22;36.13;;;;;;;7.62;100.00;102174.59;5027657;28;20136;-84
2021/12/14 11:46:58;;;;;;;65.97;35.25;;;;;;;7.64;100.00;102175.34;5029793;28;20045;-84
2021/12/14 11:49:47;;;;;;;60.85;29.50;;;;;;;7.63;100.00;102168.31;5030576;28;20061;-84
2021/12/14 11:52:14;;;;;;;63.30;32.45;;;;;;;7.63;100.00;102174.50;5000628;28;20045;-84
2021/12/14 11:54:46;;;;;;;64.00;31.45;;;;;;;7.65;100.00;102169.00;5019791;28;20261;-84
2021/12/14 11:57:13;;;;;;;62.13;36.08;;;;;;;7.71;100.00;102173.94;5016578;28;20045;-84
2021/12/14 11:59:39;;;;;;;60.25;34.03;;;;;;;7.73;100.00;102169.31;5016957;28;20056;-84
2021/12/14 12:02:06;;;;;;;65.43;35.45;;;;;;;7.73;100.00;102171.13;5012280;28;20343;-84